createdAt,value
2019-05-17T00:00:32.956Z,1.60
2019-05-17T00:03:02.988Z,1.62
2019-05-17T00:05:33.163Z,1.57
2019-05-17T00:08:03.194Z,1.67
2019-05-17T00:10:33.280Z,2.35
2019-05-17T00:13:03.387Z,1.80
2019-05-17T00:15:33.497Z,1.90
2019-05-17T00:18:03.594Z,1.60
2019-05-17T00:20:33.629Z,1.67
2019-05-17T00:23:03.723Z,1.62
2019-05-17T00:25:33.766Z,1.52
2019-05-17T00:28:03.939Z,1.55
2019-05-17T00:30:34.199Z,1.55
2019-05-17T00:33:04.374Z,1.30
2019-05-17T00:35:34.831Z,1.70
2019-05-17T00:38:06.608Z,1.50
2019-05-17T00:40:36.839Z,2.17
2019-05-17T00:43:07.100Z,1.80
2019-05-17T00:45:37.736Z,1.67
2019-05-17T00:48:08.072Z,1.60
2019-05-17T00:50:38.277Z,1.30
2019-05-17T00:53:08.495Z,1.50
2019-05-17T00:55:38.602Z,1.42
2019-05-17T00:58:08.716Z,1.70
2019-05-17T01:00:38.827Z,1.30
2019-05-17T01:03:08.855Z,1.92
2019-05-17T01:05:38.894Z,1.62
2019-05-17T01:08:08.990Z,1.45
2019-05-17T01:10:39.143Z,1.90
2019-05-17T01:13:09.247Z,2.12
2019-05-17T01:15:39.355Z,1.70
2019-05-17T01:18:09.463Z,1.67
2019-05-17T01:20:39.562Z,1.60
2019-05-17T01:23:09.607Z,1.80
2019-05-17T01:25:39.959Z,1.75
2019-05-17T01:28:09.998Z,1.80
2019-05-17T01:30:40.111Z,1.67
2019-05-17T01:33:10.146Z,1.87
2019-05-17T01:35:40.175Z,1.65
2019-05-17T01:38:10.275Z,2.05
2019-05-17T01:40:40.306Z,2.33
2019-05-17T01:43:10.338Z,2.08
2019-05-17T01:45:40.391Z,2.30
2019-05-17T01:48:10.423Z,2.40
2019-05-17T01:50:40.459Z,2.60
2019-05-17T01:53:10.499Z,2.58
2019-05-17T01:55:40.531Z,3.02
2019-05-17T01:58:10.585Z,2.40
2019-05-17T02:00:40.616Z,2.00
2019-05-17T02:03:10.722Z,2.12
2019-05-17T02:05:40.773Z,2.85
2019-05-17T02:08:10.872Z,2.72
2019-05-17T02:10:40.914Z,2.10
2019-05-17T02:13:12.022Z,3.00
2019-05-17T02:15:42.051Z,3.22
2019-05-17T02:18:12.208Z,2.45
2019-05-17T02:20:42.258Z,3.02
2019-05-17T02:23:12.307Z,3.37
2019-05-17T02:25:42.853Z,2.90
2019-05-17T02:28:12.888Z,3.08
2019-05-17T02:30:44.217Z,3.52
2019-05-17T02:33:14.441Z,2.98
2019-05-17T02:35:44.584Z,3.22
2019-05-17T02:38:15.693Z,3.95
2019-05-17T02:40:46.775Z,3.08
2019-05-17T02:43:16.841Z,3.33
2019-05-17T02:45:46.952Z,4.15
2019-05-17T02:48:17.141Z,3.70
2019-05-17T02:50:48.386Z,3.67
2019-05-17T02:53:22.725Z,3.20
2019-05-17T02:55:53.996Z,4.12
2019-05-17T02:58:23.439Z,4.40
2019-05-17T03:00:53.715Z,4.97
2019-05-17T03:03:23.941Z,4.03
2019-05-17T03:05:54.012Z,3.35
2019-05-17T03:08:24.082Z,3.90
2019-05-17T03:10:54.234Z,3.83
2019-05-17T03:13:24.320Z,4.55
2019-05-17T03:15:54.441Z,3.55
2019-05-17T03:18:24.587Z,3.83
2019-05-17T03:20:54.605Z,3.85
2019-05-17T03:23:24.651Z,3.90
2019-05-17T03:25:54.755Z,4.50
2019-05-17T03:28:25.022Z,4.30
2019-05-17T03:30:56.733Z,4.60
2019-05-17T03:33:28.046Z,4.00
2019-05-17T03:35:58.895Z,5.20
2019-05-17T03:38:32.337Z,4.00
2019-05-17T03:41:13.412Z,4.80
2019-05-17T03:43:35.139Z,4.08
2019-05-17T03:46:04.583Z,4.00
2019-05-17T03:48:34.810Z,4.33
2019-05-17T03:51:05.026Z,4.45
2019-05-17T03:53:35.144Z,3.72
2019-05-17T03:56:05.297Z,3.87
2019-05-17T03:58:35.483Z,5.03
2019-05-17T04:01:05.710Z,3.27
2019-05-17T04:03:35.893Z,3.45
2019-05-17T04:06:06.208Z,3.42
2019-05-17T04:08:36.373Z,5.22
2019-05-17T04:11:20.315Z,5.28
2019-05-17T04:13:39.376Z,4.95
2019-05-17T04:16:13.492Z,4.67
2019-05-17T04:18:43.699Z,4.80
2019-05-17T04:21:13.011Z,5.20
2019-05-17T04:23:43.229Z,4.92
2019-05-17T04:26:14.279Z,5.10
2019-05-17T04:28:44.429Z,5.50
2019-05-17T04:31:15.641Z,4.42
2019-05-17T04:33:46.066Z,5.67
2019-05-17T04:36:16.288Z,6.65
2019-05-17T04:38:46.407Z,5.55
2019-05-17T04:41:38.761Z,4.95
2019-05-17T04:43:52.944Z,5.67
2019-05-17T04:46:23.589Z,5.17
2019-05-17T04:48:53.940Z,5.20
2019-05-17T04:51:24.175Z,5.78
2019-05-17T04:53:54.296Z,5.37
2019-05-17T04:56:24.413Z,5.60
2019-05-17T04:58:54.842Z,4.50
2019-05-17T05:01:24.984Z,5.08
2019-05-17T05:03:55.284Z,4.22
2019-05-17T05:06:25.406Z,4.87
2019-05-17T05:08:55.634Z,5.62
2019-05-17T05:11:25.744Z,5.20
2019-05-17T05:13:55.968Z,5.80
2019-05-17T05:16:26.087Z,5.33
2019-05-17T05:18:57.128Z,4.30
2019-05-17T05:21:27.299Z,5.03
2019-05-17T05:23:57.470Z,5.05
2019-05-17T05:26:27.588Z,4.80
2019-05-17T05:28:57.708Z,4.72
2019-05-17T05:31:27.931Z,3.62
2019-05-17T05:33:58.043Z,3.98
2019-05-17T05:36:28.272Z,3.47
2019-05-17T05:38:58.493Z,3.35
2019-05-17T05:41:28.612Z,2.40
2019-05-17T05:44:18.086Z,2.40
2019-05-17T05:46:48.107Z,2.05
2019-05-17T05:49:18.210Z,2.22
2019-05-17T05:51:48.240Z,2.47
2019-05-17T05:54:18.262Z,2.20
2019-05-17T05:56:48.311Z,2.10
2019-05-17T05:59:18.339Z,2.22
2019-05-17T06:01:49.517Z,2.40
2019-05-17T06:04:22.171Z,3.85
2019-05-17T06:06:52.244Z,2.40
2019-05-17T06:09:22.451Z,2.15
2019-05-17T06:11:52.638Z,2.33
2019-05-17T06:14:22.669Z,2.50
2019-05-17T06:16:52.777Z,2.20
2019-05-17T06:19:22.803Z,2.12
2019-05-17T06:21:52.853Z,3.17
2019-05-17T06:24:23.022Z,2.70
2019-05-17T06:26:53.061Z,3.30
2019-05-17T06:29:23.093Z,3.10
2019-05-17T06:31:53.127Z,3.02
2019-05-17T06:34:23.173Z,3.40
2019-05-17T06:36:54.349Z,3.65
2019-05-17T06:39:24.381Z,4.85
2019-05-17T06:41:54.434Z,4.80
2019-05-17T06:44:24.483Z,4.58
2019-05-17T06:46:54.506Z,4.28
2019-05-17T06:49:24.538Z,3.30
2019-05-17T06:51:54.618Z,2.85
2019-05-17T06:54:24.652Z,3.58
2019-05-17T06:56:54.687Z,3.02
2019-05-17T06:59:24.711Z,1.82
2019-05-17T07:01:54.821Z,2.22
2019-05-17T07:04:24.884Z,2.02
2019-05-17T07:07:12.822Z,2.35
2019-05-17T07:09:42.843Z,1.90
2019-05-17T07:12:12.865Z,1.87
2019-05-17T07:14:43.196Z,2.70
2019-05-17T07:17:13.225Z,2.92
2019-05-17T07:19:43.259Z,3.08
2019-05-17T07:22:13.354Z,2.80
2019-05-17T07:24:43.391Z,3.83
2019-05-17T07:27:13.430Z,3.35
2019-05-17T07:29:43.821Z,3.83
2019-05-17T07:32:13.865Z,2.83
2019-05-17T07:34:43.982Z,3.17
2019-05-17T07:37:14.217Z,3.02
2019-05-17T07:39:56.646Z,3.95
2019-05-17T07:42:15.916Z,3.40
2019-05-17T07:44:45.951Z,4.05
2019-05-17T07:47:16.398Z,4.45
2019-05-17T07:49:46.183Z,6.00
2019-05-17T07:52:17.105Z,8.63
2019-05-17T07:54:47.139Z,7.85
2019-05-17T07:57:17.210Z,9.15
2019-05-17T07:59:47.240Z,8.63
2019-05-17T08:02:19.720Z,5.83
2019-05-17T08:04:50.096Z,5.58
2019-05-17T08:07:20.942Z,5.78
2019-05-17T08:09:51.367Z,5.22
2019-05-17T08:12:21.416Z,4.70
2019-05-17T08:14:51.915Z,4.60
2019-05-17T08:17:21.946Z,4.28
2019-05-17T08:19:52.001Z,4.53
2019-05-17T08:22:22.041Z,4.30
2019-05-17T08:24:52.067Z,4.55
2019-05-17T08:27:22.112Z,4.25
2019-05-17T08:29:52.129Z,5.15
2019-05-17T08:32:22.162Z,4.92
2019-05-17T08:34:52.180Z,5.20
2019-05-17T08:37:22.218Z,5.78
2019-05-17T08:39:52.255Z,5.72
2019-05-17T08:42:22.300Z,5.72
2019-05-17T08:44:52.400Z,5.40
2019-05-17T08:47:22.434Z,5.95
2019-05-17T08:49:52.620Z,5.35
2019-05-17T08:52:22.744Z,6.12
2019-05-17T08:54:52.789Z,5.95
2019-05-17T08:57:22.851Z,6.22
2019-05-17T08:59:52.873Z,4.92
2019-05-17T09:02:22.979Z,5.67
2019-05-17T09:04:53.002Z,5.33
2019-05-17T09:07:23.033Z,5.15
2019-05-17T09:09:53.561Z,5.45
2019-05-17T09:12:23.608Z,4.75
2019-05-17T09:14:53.650Z,4.67
2019-05-17T09:17:23.682Z,4.50
2019-05-17T09:19:54.448Z,4.00
2019-05-17T09:22:24.650Z,4.03
2019-05-17T09:24:54.695Z,3.08
2019-05-17T09:27:24.718Z,3.95
2019-05-17T09:29:54.746Z,3.80
2019-05-17T09:32:26.743Z,3.17
2019-05-17T09:34:56.779Z,2.70
2019-05-17T09:37:26.834Z,2.55
2019-05-17T09:39:56.852Z,2.65
2019-05-17T09:42:26.884Z,3.27
2019-05-17T09:44:56.976Z,3.10
2019-05-17T09:47:27.144Z,3.08
2019-05-17T09:49:57.324Z,3.30
2019-05-17T09:52:29.281Z,2.90
2019-05-17T09:55:00.416Z,4.03
2019-05-17T09:57:32.105Z,3.40
2019-05-17T10:00:02.208Z,3.20
2019-05-17T10:02:33.832Z,4.37
2019-05-17T10:05:05.801Z,4.33
2019-05-17T10:07:35.812Z,4.60
2019-05-17T10:10:07.345Z,4.28
2019-05-17T10:12:40.049Z,3.85
2019-05-17T10:15:10.345Z,4.15
2019-05-17T10:17:40.507Z,3.60
2019-05-17T10:20:11.033Z,4.33
2019-05-17T10:22:43.942Z,3.72
2019-05-17T10:25:14.515Z,3.80
2019-05-17T10:27:44.539Z,3.50
2019-05-17T10:30:14.650Z,3.25
2019-05-17T10:32:44.701Z,4.10
2019-05-17T10:35:14.957Z,4.05
2019-05-17T10:37:44.983Z,4.33
2019-05-17T10:40:15.620Z,4.35
2019-05-17T10:42:45.739Z,4.70
2019-05-17T10:45:16.355Z,3.92
2019-05-17T10:47:46.593Z,4.30
2019-05-17T10:50:17.122Z,4.40
2019-05-17T10:52:48.162Z,4.12
2019-05-17T10:55:20.036Z,4.00
2019-05-17T10:57:52.702Z,3.80
2019-05-17T11:00:24.055Z,3.90
2019-05-17T11:02:54.274Z,4.08
2019-05-17T11:05:24.804Z,3.83
2019-05-17T11:07:54.923Z,3.62
2019-05-17T11:10:26.065Z,3.70
2019-05-17T11:12:56.185Z,3.67
2019-05-17T11:15:26.307Z,3.08
2019-05-17T11:17:56.424Z,3.25
2019-05-17T11:20:26.748Z,3.37
2019-05-17T11:22:56.870Z,3.12
2019-05-17T11:25:27.237Z,2.87
2019-05-17T11:27:57.282Z,3.67
2019-05-17T11:30:27.534Z,3.20
2019-05-17T11:32:57.762Z,2.70
2019-05-17T11:35:27.876Z,2.85
2019-05-17T11:37:57.899Z,3.15
2019-05-17T11:40:28.128Z,2.98
2019-05-17T11:42:58.580Z,2.98
2019-05-17T11:45:32.495Z,3.17
2019-05-17T11:48:00.829Z,2.83
2019-05-17T11:50:31.156Z,3.58
2019-05-17T11:53:01.174Z,3.22
2019-05-17T11:55:31.222Z,2.90
2019-05-17T11:58:01.270Z,3.58
2019-05-17T12:00:31.620Z,3.77
2019-05-17T12:03:01.739Z,3.42
2019-05-17T12:05:32.216Z,3.22
2019-05-17T12:08:02.709Z,3.10
2019-05-17T12:10:32.940Z,2.77
2019-05-17T12:13:03.152Z,2.42
2019-05-17T12:15:44.462Z,2.42
2019-05-17T12:18:05.031Z,2.58
2019-05-17T12:20:35.559Z,2.80
2019-05-17T12:23:05.784Z,2.72
2019-05-17T12:25:35.900Z,2.83
2019-05-17T12:28:06.125Z,2.72
2019-05-17T12:30:36.348Z,2.65
2019-05-17T12:33:11.074Z,2.62
2019-05-17T12:35:42.523Z,3.10
2019-05-17T12:38:12.656Z,2.60
2019-05-17T12:40:42.762Z,2.42
2019-05-17T12:43:12.818Z,3.00
2019-05-17T12:45:42.993Z,2.25
2019-05-17T12:48:13.231Z,2.70
2019-05-17T12:50:43.253Z,2.10
2019-05-17T12:53:13.286Z,2.60
2019-05-17T12:55:43.323Z,2.20
2019-05-17T12:58:14.425Z,2.35
2019-05-17T13:00:44.477Z,3.30
2019-05-17T13:03:14.500Z,2.42
2019-05-17T13:05:44.530Z,2.47
2019-05-17T13:08:14.694Z,3.27
2019-05-17T13:10:44.879Z,2.83
2019-05-17T13:13:14.931Z,2.83
2019-05-17T13:15:45.361Z,2.80
2019-05-17T13:18:16.809Z,2.67
2019-05-17T13:20:46.931Z,4.08
2019-05-17T13:23:16.961Z,2.72
2019-05-17T13:25:46.991Z,2.90
2019-05-17T13:28:17.030Z,3.02
2019-05-17T13:30:47.082Z,2.85
2019-05-17T13:33:17.655Z,3.10
2019-05-17T13:35:48.705Z,2.37
2019-05-17T13:38:18.893Z,2.75
2019-05-17T13:40:49.012Z,2.60
2019-05-17T13:43:19.648Z,2.65
2019-05-17T13:45:49.764Z,2.98
2019-05-17T13:48:19.886Z,2.42
2019-05-17T13:50:52.007Z,2.15
2019-05-17T13:53:21.793Z,2.50
2019-05-17T13:55:52.080Z,2.37
2019-05-17T13:58:22.312Z,2.70
2019-05-17T14:00:52.430Z,3.20
2019-05-17T14:03:22.559Z,3.05
2019-05-17T14:05:52.667Z,3.12
2019-05-17T14:08:22.786Z,2.33
2019-05-17T14:10:52.905Z,2.85
2019-05-17T14:13:23.025Z,2.47
2019-05-17T14:15:53.148Z,2.58
2019-05-17T14:18:23.155Z,3.05
2019-05-17T14:20:53.268Z,3.08
2019-05-17T14:23:23.368Z,3.00
2019-05-17T14:25:53.417Z,3.12
2019-05-17T14:28:23.527Z,2.92
2019-05-17T14:30:53.559Z,3.25
2019-05-17T14:33:23.957Z,2.87
2019-05-17T14:35:53.992Z,3.20
2019-05-17T14:38:24.112Z,3.27
2019-05-17T14:41:06.212Z,3.72
2019-05-17T14:43:25.896Z,3.90
2019-05-17T14:45:55.927Z,3.22
2019-05-17T14:48:25.971Z,3.42
2019-05-17T14:50:56.059Z,3.62
2019-05-17T14:53:26.109Z,3.27
2019-05-17T14:55:56.136Z,3.00
2019-05-17T14:58:26.163Z,2.87
2019-05-17T15:00:56.352Z,2.75
2019-05-17T15:03:26.493Z,2.70
2019-05-17T15:05:56.600Z,2.10
2019-05-17T15:08:26.644Z,2.87
2019-05-17T15:10:57.131Z,3.35
2019-05-17T15:13:27.175Z,3.10
2019-05-17T15:15:57.282Z,3.42
2019-05-17T15:18:27.524Z,3.00
2019-05-17T15:20:57.551Z,2.60
2019-05-17T15:23:27.617Z,3.20
2019-05-17T15:25:58.713Z,2.75
2019-05-17T15:28:28.758Z,2.83
2019-05-17T15:30:59.119Z,3.10
2019-05-17T15:33:29.159Z,2.72
2019-05-17T15:35:59.215Z,2.77
2019-05-17T15:38:29.246Z,2.80
2019-05-17T15:40:59.361Z,2.80
2019-05-17T15:43:29.445Z,3.12
2019-05-17T15:45:59.552Z,3.10
2019-05-17T15:48:29.650Z,3.05
2019-05-17T15:51:00.897Z,2.37
2019-05-17T15:53:30.983Z,1.87
2019-05-17T15:56:01.089Z,2.25
2019-05-17T15:58:31.222Z,2.22
2019-05-17T16:01:01.348Z,2.87
2019-05-17T16:03:31.698Z,2.30
2019-05-17T16:06:01.786Z,2.40
2019-05-17T16:08:32.233Z,2.42
2019-05-17T16:11:20.487Z,2.10
2019-05-17T16:14:08.251Z,1.92
2019-05-17T16:16:38.286Z,1.85
2019-05-17T16:19:08.348Z,2.27
2019-05-17T16:21:40.700Z,2.00
2019-05-17T16:24:10.802Z,1.92
2019-05-17T16:26:40.939Z,2.62
2019-05-17T16:29:11.112Z,2.05
2019-05-17T16:31:41.178Z,1.80
2019-05-17T16:34:11.218Z,2.45
2019-05-17T16:36:41.267Z,2.65
2019-05-17T16:39:11.357Z,2.52
2019-05-17T16:41:41.400Z,2.83
2019-05-17T16:44:14.460Z,2.77
2019-05-17T16:46:43.367Z,2.62
2019-05-17T16:49:13.399Z,2.37
2019-05-17T16:51:43.506Z,3.12
2019-05-17T16:54:13.535Z,3.10
2019-05-17T16:56:43.605Z,3.02
2019-05-17T16:59:13.716Z,3.22
2019-05-17T17:01:43.893Z,2.37
2019-05-17T17:04:13.931Z,2.27
2019-05-17T17:06:44.275Z,3.65
2019-05-17T17:09:14.394Z,3.62
2019-05-17T17:11:45.766Z,2.87
2019-05-17T17:14:16.409Z,2.35
2019-05-17T17:16:46.519Z,2.83
2019-05-17T17:19:16.634Z,2.55
2019-05-17T17:21:46.657Z,2.27
2019-05-17T17:24:16.793Z,2.55
2019-05-17T17:26:46.838Z,2.33
2019-05-17T17:29:16.943Z,2.42
2019-05-17T17:31:46.975Z,1.82
2019-05-17T17:34:17.008Z,1.90
2019-05-17T17:36:47.044Z,1.98
2019-05-17T17:39:17.141Z,2.33
2019-05-17T17:41:47.527Z,1.95
2019-05-17T17:44:17.704Z,2.20
2019-05-17T17:46:47.760Z,2.47
2019-05-17T17:49:17.830Z,2.33
2019-05-17T17:51:47.939Z,2.12
2019-05-17T17:54:19.106Z,2.30
2019-05-17T17:56:49.153Z,2.52
2019-05-17T17:59:19.210Z,2.22
2019-05-17T18:01:50.454Z,2.40
2019-05-17T18:04:20.540Z,2.05
2019-05-17T18:06:50.985Z,2.58
2019-05-17T18:09:21.080Z,2.37
2019-05-17T18:11:51.116Z,2.35
2019-05-17T18:14:21.146Z,2.20
2019-05-17T18:16:51.173Z,2.02
2019-05-17T18:19:21.548Z,2.22
2019-05-17T18:21:51.720Z,3.00
2019-05-17T18:24:21.751Z,2.50
2019-05-17T18:26:53.033Z,3.05
2019-05-17T18:29:23.139Z,3.20
2019-05-17T18:31:53.504Z,3.95
2019-05-17T18:34:23.521Z,3.30
2019-05-17T18:36:53.559Z,3.30
2019-05-17T18:39:24.752Z,4.00
2019-05-17T18:41:55.321Z,2.92
2019-05-17T18:44:27.807Z,2.98
2019-05-17T18:46:57.160Z,2.90
2019-05-17T18:49:27.240Z,2.95
2019-05-17T18:51:57.285Z,2.90
2019-05-17T18:54:27.327Z,3.08
2019-05-17T18:56:57.510Z,2.72
2019-05-17T18:59:28.403Z,3.50
2019-05-17T19:01:58.547Z,2.95
2019-05-17T19:04:28.575Z,2.92
2019-05-17T19:06:58.615Z,3.80
2019-05-17T19:09:28.679Z,3.10
2019-05-17T19:11:58.868Z,3.15
2019-05-17T19:14:42.123Z,3.05
2019-05-17T19:17:00.634Z,3.25
2019-05-17T19:19:30.651Z,3.10
2019-05-17T19:22:02.286Z,3.45
2019-05-17T19:24:32.412Z,3.22
2019-05-17T19:27:02.476Z,3.47
2019-05-17T19:29:32.567Z,3.30
2019-05-17T19:32:02.647Z,3.55
2019-05-17T19:34:32.678Z,3.22
2019-05-17T19:37:02.790Z,3.33
2019-05-17T19:39:32.892Z,3.67
2019-05-17T19:42:03.014Z,2.58
2019-05-17T19:44:33.038Z,2.25
2019-05-17T19:47:03.069Z,2.92
2019-05-17T19:49:33.113Z,2.65
2019-05-17T19:52:03.158Z,2.12
2019-05-17T19:54:33.260Z,2.33
2019-05-17T19:57:03.278Z,2.77
2019-05-17T19:59:33.337Z,2.40
2019-05-17T20:02:06.411Z,2.17
2019-05-17T20:04:35.024Z,2.67
2019-05-17T20:07:05.137Z,2.10
2019-05-17T20:09:35.312Z,2.00
2019-05-17T20:12:05.486Z,2.08
2019-05-17T20:14:35.521Z,2.45
2019-05-17T20:17:05.964Z,2.22
2019-05-17T20:19:37.269Z,2.25
2019-05-17T20:22:07.310Z,1.92
2019-05-17T20:24:37.415Z,2.25
2019-05-17T20:27:07.438Z,2.02
2019-05-17T20:29:38.562Z,2.52
2019-05-17T20:32:08.593Z,2.15
2019-05-17T20:34:38.628Z,2.33
2019-05-17T20:37:08.820Z,2.17
2019-05-17T20:39:38.850Z,2.20
2019-05-17T20:42:08.883Z,2.00
2019-05-17T20:44:38.930Z,2.30
2019-05-17T20:47:09.040Z,2.15
2019-05-17T20:49:39.371Z,2.90
2019-05-17T20:52:09.438Z,2.12
2019-05-17T20:54:39.518Z,2.83
2019-05-17T20:57:09.547Z,2.25
2019-05-17T20:59:39.600Z,1.70
2019-05-17T21:02:09.634Z,2.10
2019-05-17T21:04:39.680Z,2.00
2019-05-17T21:07:09.706Z,2.22
2019-05-17T21:09:39.781Z,1.70
2019-05-17T21:12:09.819Z,2.50
2019-05-17T21:14:39.880Z,2.10
2019-05-17T21:17:09.977Z,2.22
2019-05-17T21:19:40.030Z,2.20
2019-05-17T21:22:10.045Z,2.00
2019-05-17T21:24:40.105Z,2.30
2019-05-17T21:27:10.148Z,2.27
2019-05-17T21:29:40.179Z,2.00
2019-05-17T21:32:10.617Z,2.42
2019-05-17T21:34:40.706Z,2.87
2019-05-17T21:37:10.738Z,2.37
2019-05-17T21:39:42.062Z,2.35
2019-05-17T21:42:12.664Z,2.58
2019-05-17T21:44:42.758Z,3.15
2019-05-17T21:47:12.793Z,2.50
2019-05-17T21:49:42.923Z,2.92
2019-05-17T21:52:12.964Z,2.52
2019-05-17T21:54:43.010Z,2.40
2019-05-17T21:57:13.453Z,2.65
2019-05-17T21:59:43.498Z,2.60
2019-05-17T22:02:13.689Z,2.95
2019-05-17T22:04:44.121Z,2.98
2019-05-17T22:07:14.150Z,2.35
2019-05-17T22:09:44.255Z,2.42
2019-05-17T22:12:14.971Z,2.75
2019-05-17T22:14:45.004Z,2.17
2019-05-17T22:17:15.057Z,3.02
2019-05-17T22:19:45.081Z,3.27
2019-05-17T22:22:15.140Z,3.08
2019-05-17T22:24:46.238Z,3.72
2019-05-17T22:27:16.275Z,3.30
2019-05-17T22:29:46.399Z,3.37
2019-05-17T22:32:16.423Z,3.20
2019-05-17T22:34:46.466Z,3.42
2019-05-17T22:37:17.669Z,3.55
2019-05-17T22:39:47.842Z,3.47
2019-05-17T22:42:17.884Z,4.17
2019-05-17T22:44:48.253Z,4.05
2019-05-17T22:47:18.292Z,5.97
2019-05-17T22:49:48.326Z,4.10
2019-05-17T22:52:18.381Z,3.40
2019-05-17T22:54:48.425Z,3.35
2019-05-17T22:57:20.053Z,3.65
2019-05-17T22:59:50.109Z,3.33
2019-05-17T23:02:20.144Z,3.02
2019-05-17T23:04:50.567Z,3.58
2019-05-17T23:07:20.610Z,2.45
2019-05-17T23:09:50.668Z,2.60
2019-05-17T23:12:20.699Z,2.55
2019-05-17T23:14:50.753Z,2.20
2019-05-17T23:17:20.789Z,1.92
2019-05-17T23:19:50.838Z,1.57
2019-05-17T23:22:20.868Z,1.70
2019-05-17T23:24:51.003Z,1.80
2019-05-17T23:27:21.034Z,1.70
2019-05-17T23:29:51.388Z,1.75
2019-05-17T23:32:21.418Z,1.60
2019-05-17T23:34:51.452Z,1.47
2019-05-17T23:37:21.485Z,1.50
2019-05-17T23:39:51.927Z,1.30
2019-05-17T23:42:21.956Z,1.20
2019-05-17T23:44:52.009Z,1.60
2019-05-17T23:47:22.052Z,1.50
2019-05-17T23:49:52.122Z,1.30
2019-05-17T23:52:23.214Z,1.07
2019-05-17T23:54:53.575Z,1.37
2019-05-17T23:57:23.623Z,1.60
2019-05-17T23:59:53.655Z,1.82
